Gladstone, Michigan
Current Conditions -  °F | °C
As of 12:55 PM on Monday 24 Nov 2014 (Local Time) from KESC Reporting Station
Overcast Overcast  
Wind Chill: 31°   Ceiling: 4100
Heat Index: 39°   Visibility: 10mi
Dew Point: 34°   Wind: 15mph
Humidity: 81%   Direction: 340°NNW
Pressure: 29.05"   Gusts: 21mph
Location:  45.85°N, 87.02°W
Report Text: KESC 241755Z AUTO 34013G18KT 10SM SCT013 BKN041 OVC049 04/01 A2905 RMK AO1 10060 20040 52020
Loading
Personal Weather Stations






























Interactive Weather Map New forecast layout! Learn more

10-Day Weather Forecast

Advertisements
Track Severe Weather on mobile